Huron Township, Michigan
Current Conditions -  °F | °C
As of 2:53 PM on Thursday 23 Oct 2014 (Local Time) from KDTW Reporting Station
Broken Clouds Broken Clouds  
Wind Chill: 58°   Ceiling: 23000
Heat Index: 58°   Visibility: 10mi
Dew Point: 40°   Wind: 8mph
Humidity: 51%   Direction: 250°WSW
Pressure: 30.17"   Gusts: NA
Location:  42.1166°N, 83.4023°W
Report Text: KDTW 231853Z 25007KT 10SM BKN230 14/04 A3017 RMK AO2 SLP218 T01440044
Loading
Personal Weather Stations






























Interactive Weather Map
Tropical Storm Tracking
New forecast layout! Learn more

10-Day Weather Forecast

Advertisements
Track Severe Weather on mobile